»·PEaware :: N9092T KSMX-KBFL

N9092T :: KSMX-KBFL

FLIGHT INFORMATION

Flight Status: Arrived
Operator: Privately registered:
United States
More flights under this callsign
Pilot: James C. (15816)
Aircraft: Unknown
(A36)
More flights by this aircraft type
Origin: KSMX Santa Maria Pub/Capt Hancock
United States
Destination: KBFL Meadows
United States
More flights between these airports :: More routes between these airports
Route: +
File this flight plan on PilotEdge
Remarks: CAT-05 Flight
Altitude:
(Current/Filed)
7,500ft
Speed:
(Current/Filed)
140kts
Departed: 07-Oct-18 10:53 AM
Arrived: 07-Oct-18 11:25 AM
Distance/Time
Traveled:
76nm/0:32
Distance/Time
To Go:
Arrived

Flight Plot

Page will automatically refresh every two minutes.


Map Options




Map Legend


Flown Route
Filed Route
Departure Airport
Arrival Airport
Navaid (VOR, NDB)
Fix

Horizontal Profiles

Position Reports

Time Latitude Longitude Heading Altitude Ground
Speed
07-Oct-18 10:43 34.896566 -120.445956 314 265ft 0kts
07-Oct-18 10:44 34.896566 -120.445956 314 265ft 0kts
07-Oct-18 10:45 34.896566 -120.445956 314 265ft 0kts
07-Oct-18 10:46 34.896566 -120.445956 314 265ft 0kts
07-Oct-18 10:47 34.896566 -120.445956 314 265ft 0kts
07-Oct-18 10:48 34.896566 -120.445956 314 265ft 0kts
07-Oct-18 10:49 34.896429 -120.446289 174 265ft 6kts
07-Oct-18 10:50 34.895258 -120.444983 139 265ft 3kts
07-Oct-18 10:51 34.894056 -120.445261 182 265ft 8kts
07-Oct-18 10:52 34.893595 -120.445274 182 265ft 0kts
07-Oct-18 10:53 34.893595 -120.445274 182 265ft 0kts
07-Oct-18 10:54 34.893086 -120.445396 214 265ft 11kts
07-Oct-18 10:55 34.905294 -120.461643 311 790ft 104kts
07-Oct-18 10:56 34.930395 -120.461425 81 2112ft 111kts
07-Oct-18 10:57 34.933114 -120.425023 94 3452ft 110kts
07-Oct-18 10:58 34.935874 -120.385044 93 4319ft 135kts
07-Oct-18 10:59 34.942153 -120.336632 79 4860ft 153kts
07-Oct-18 11:00 34.958878 -120.288059 73 5364ft 156kts
07-Oct-18 11:01 34.977282 -120.240554 73 5859ft 153kts
07-Oct-18 11:02 34.995567 -120.193823 73 6357ft 152kts
07-Oct-18 11:03 35.013837 -120.147173 73 6855ft 152kts
07-Oct-18 11:04 35.032058 -120.100629 73 7354ft 152kts
07-Oct-18 11:05 35.050915 -120.052213 72 7506ft 166kts
07-Oct-18 11:06 35.071638 -119.999091 71 7498ft 175kts
07-Oct-18 11:07 35.092419 -119.945830 71 7500ft 173kts
07-Oct-18 11:08 35.112980 -119.892874 71 7499ft 172kts
07-Oct-18 11:09 35.133891 -119.839005 71 7495ft 176kts
07-Oct-18 11:10 35.154699 -119.785265 71 7503ft 179kts
07-Oct-18 11:11 35.176126 -119.729887 71 7518ft 181kts
07-Oct-18 11:12 35.197564 -119.674380 71 7521ft 181kts
07-Oct-18 11:13 35.218987 -119.618742 71 7518ft 181kts
07-Oct-18 11:14 35.240303 -119.563378 67 7484ft 175kts
07-Oct-18 11:15 35.260092 -119.511725 60 7474ft 164kts
07-Oct-18 11:16 35.279248 -119.461859 60 7500ft 166kts
07-Oct-18 11:17 35.298772 -119.410700 60 7498ft 166kts
07-Oct-18 11:18 35.318506 -119.359266 60 7496ft 168kts
07-Oct-18 11:19 35.338396 -119.307239 60 7493ft 169kts
07-Oct-18 11:20 35.358062 -119.255609 60 7492ft 170kts
07-Oct-18 11:21 35.377760 -119.203744 60 7462ft 154kts
07-Oct-18 11:22 35.395512 -119.156363 61 6532ft 162kts
07-Oct-18 11:23 35.418083 -119.103803 52 4269ft 157kts
07-Oct-18 11:24 35.405351 -119.059560 128 2532ft 163kts
07-Oct-18 11:25 35.407962 -119.031577 347 1382ft 100kts
07-Oct-18 11:26 35.427334 -119.051879 312 598ft 90kts
07-Oct-18 11:27 35.434689 -119.060161 30 511ft 4kts
07-Oct-18 11:28 35.435193 -119.059564 45 511ft 0kts
07-Oct-18 11:29 35.436137 -119.056735 132 511ft 5kts
07-Oct-18 11:30 35.432181 -119.051929 134 511ft 20kts
07-Oct-18 11:31 35.428576 -119.047536 133 511ft 25kts
07-Oct-18 11:32 35.424956 -119.042871 87 511ft 11kts
07-Oct-18 11:33 35.425044 -119.042479 0 511ft 0kts

Navigation Log

Ident Type
1. KSMX Airport
2. KBFL Airport